sensor_id;sensor_type;location;lat;lon;timestamp;temperature;humidity
37310;DHT22;23195;47.744;7.358;2023-07-20T00:01:53;22.40;88.30
37310;DHT22;23195;47.744;7.358;2023-07-20T00:04:18;22.20;89.20
37310;DHT22;23195;47.744;7.358;2023-07-20T00:06:44;22.30;88.40
37310;DHT22;23195;47.744;7.358;2023-07-20T00:09:11;22.10;89.10
37310;DHT22;23195;47.744;7.358;2023-07-20T00:11:37;22.10;89.20
37310;DHT22;23195;47.744;7.358;2023-07-20T00:14:05;22.10;89.60
37310;DHT22;23195;47.744;7.358;2023-07-20T00:16:31;22.10;89.90
37310;DHT22;23195;47.744;7.358;2023-07-20T00:18:57;22.10;90.10
37310;DHT22;23195;47.744;7.358;2023-07-20T00:21:22;22.10;90.40
37310;DHT22;23195;47.744;7.358;2023-07-20T00:23:48;22.00;93.60
37310;DHT22;23195;47.744;7.358;2023-07-20T00:26:17;21.90;94.50
37310;DHT22;23195;47.744;7.358;2023-07-20T00:28:43;21.90;95.30
37310;DHT22;23195;47.744;7.358;2023-07-20T00:31:09;21.80;95.70
37310;DHT22;23195;47.744;7.358;2023-07-20T00:33:34;21.70;96.20
37310;DHT22;23195;47.744;7.358;2023-07-20T00:36:00;21.60;96.90
37310;DHT22;23195;47.744;7.358;2023-07-20T00:38:26;21.50;98.20
37310;DHT22;23195;47.744;7.358;2023-07-20T00:40:51;21.30;99.40
37310;DHT22;23195;47.744;7.358;2023-07-20T00:43:17;21.20;99.90
37310;DHT22;23195;47.744;7.358;2023-07-20T00:45:43;21.20;99.90
37310;DHT22;23195;47.744;7.358;2023-07-20T00:48:10;21.30;99.90
37310;DHT22;23195;47.744;7.358;2023-07-20T00:50:36;21.20;99.90
37310;DHT22;23195;47.744;7.358;2023-07-20T00:53:04;21.20;99.90
37310;DHT22;23195;47.744;7.358;2023-07-20T00:55:32;21.10;99.90
37310;DHT22;23195;47.744;7.358;2023-07-20T00:57:59;21.10;99.90
37310;DHT22;23195;47.744;7.358;2023-07-20T01:00:26;21.10;99.90
37310;DHT22;23195;47.744;7.358;2023-07-20T01:02:52;21.10;99.90
37310;DHT22;23195;47.744;7.358;2023-07-20T01:05:18;21.10;99.90
37310;DHT22;23195;47.744;7.358;2023-07-20T01:07:55;20.90;99.90
37310;DHT22;23195;47.744;7.358;2023-07-20T01:10:32;20.30;99.90
37310;DHT22;23195;47.744;7.358;2023-07-20T01:13:00;20.90;99.90
37310;DHT22;23195;47.744;7.358;2023-07-20T01:15:27;20.90;99.90
37310;DHT22;23195;47.744;7.358;2023-07-20T01:17:53;20.80;99.90
37310;DHT22;23195;47.744;7.358;2023-07-20T01:20:20;20.80;99.90
37310;DHT22;23195;47.744;7.358;2023-07-20T01:26:08;20.60;99.90
37310;DHT22;23195;47.744;7.358;2023-07-20T01:31:22;20.70;99.90
37310;DHT22;23195;47.744;7.358;2023-07-20T01:33:57;20.60;99.90
37310;DHT22;23195;47.744;7.358;2023-07-20T01:36:24;20.70;99.90
37310;DHT22;23195;47.744;7.358;2023-07-20T01:38:51;20.60;99.90
37310;DHT22;23195;47.744;7.358;2023-07-20T01:41:18;20.70;99.90
37310;DHT22;23195;47.744;7.358;2023-07-20T01:43:44;20.60;99.90
37310;DHT22;23195;47.744;7.358;2023-07-20T01:46:10;20.70;99.90
37310;DHT22;23195;47.744;7.358;2023-07-20T01:48:36;20.50;99.90
37310;DHT22;23195;47.744;7.358;2023-07-20T01:51:01;20.40;99.90
37310;DHT22;23195;47.744;7.358;2023-07-20T01:53:27;20.40;99.90
37310;DHT22;23195;47.744;7.358;2023-07-20T01:55:59;20.40;99.90
37310;DHT22;23195;47.744;7.358;2023-07-20T01:58:25;20.40;99.90
37310;DHT22;23195;47.744;7.358;2023-07-20T02:00:51;21.00;99.90
37310;DHT22;23195;47.744;7.358;2023-07-20T02:03:17;20.30;99.90
37310;DHT22;23195;47.744;7.358;2023-07-20T02:05:43;20.30;99.90
37310;DHT22;23195;47.744;7.358;2023-07-20T02:08:12;20.40;99.90
37310;DHT22;23195;47.744;7.358;2023-07-20T02:10:38;20.20;99.90
37310;DHT22;23195;47.744;7.358;2023-07-20T02:13:03;20.20;99.90
37310;DHT22;23195;47.744;7.358;2023-07-20T02:15:29;20.30;99.90
37310;DHT22;23195;47.744;7.358;2023-07-20T02:17:55;20.30;99.90
37310;DHT22;23195;47.744;7.358;2023-07-20T02:20:21;20.70;99.90
37310;DHT22;23195;47.744;7.358;2023-07-20T02:22:46;20.20;99.90
37310;DHT22;23195;47.744;7.358;2023-07-20T02:25:12;20.20;99.90
37310;DHT22;23195;47.744;7.358;2023-07-20T02:27:38;20.10;99.90
37310;DHT22;23195;47.744;7.358;2023-07-20T02:30:05;20.20;99.90
37310;DHT22;23195;47.744;7.358;2023-07-20T02:32:31;20.20;99.90
37310;DHT22;23195;47.744;7.358;2023-07-20T02:35:02;20.10;99.90
37310;DHT22;23195;47.744;7.358;2023-07-20T02:37:29;20.00;99.90
37310;DHT22;23195;47.744;7.358;2023-07-20T02:39:55;20.00;99.90
37310;DHT22;23195;47.744;7.358;2023-07-20T02:42:20;19.90;99.90
37310;DHT22;23195;47.744;7.358;2023-07-20T02:44:48;19.90;99.90
37310;DHT22;23195;47.744;7.358;2023-07-20T02:47:15;19.90;99.90
37310;DHT22;23195;47.744;7.358;2023-07-20T02:49:40;19.90;99.90
37310;DHT22;23195;47.744;7.358;2023-07-20T02:52:06;19.80;99.90
37310;DHT22;23195;47.744;7.358;2023-07-20T02:54:32;19.80;99.90
37310;DHT22;23195;47.744;7.358;2023-07-20T02:57:00;19.70;99.90
37310;DHT22;23195;47.744;7.358;2023-07-20T02:59:29;19.80;99.90
37310;DHT22;23195;47.744;7.358;2023-07-20T03:01:55;19.70;99.90
37310;DHT22;23195;47.744;7.358;2023-07-20T03:04:21;19.70;99.90
37310;DHT22;23195;47.744;7.358;2023-07-20T03:06:47;19.60;99.90
37310;DHT22;23195;47.744;7.358;2023-07-20T03:09:13;19.60;99.90
37310;DHT22;23195;47.744;7.358;2023-07-20T03:11:38;19.60;99.90
37310;DHT22;23195;47.744;7.358;2023-07-20T03:14:04;19.50;99.90
37310;DHT22;23195;47.744;7.358;2023-07-20T03:16:30;19.40;99.90
37310;DHT22;23195;47.744;7.358;2023-07-20T03:18:59;19.40;99.90
37310;DHT22;23195;47.744;7.358;2023-07-20T03:21:26;19.30;99.90
37310;DHT22;23195;47.744;7.358;2023-07-20T03:23:52;19.40;99.90
37310;DHT22;23195;47.744;7.358;2023-07-20T03:26:17;19.40;99.90
37310;DHT22;23195;47.744;7.358;2023-07-20T03:28:43;19.40;99.90
37310;DHT22;23195;47.744;7.358;2023-07-20T03:31:09;19.40;99.90
37310;DHT22;23195;47.744;7.358;2023-07-20T03:33:35;19.40;99.90
37310;DHT22;23195;47.744;7.358;2023-07-20T03:36:01;19.30;99.90
37310;DHT22;23195;47.744;7.358;2023-07-20T03:38:27;19.30;99.90
37310;DHT22;23195;47.744;7.358;2023-07-20T03:40:54;19.50;99.90
37310;DHT22;23195;47.744;7.358;2023-07-20T03:43:21;19.40;99.90
37310;DHT22;23195;47.744;7.358;2023-07-20T03:45:50;19.30;99.90
37310;DHT22;23195;47.744;7.358;2023-07-20T03:48:21;19.30;99.90
37310;DHT22;23195;47.744;7.358;2023-07-20T03:50:52;19.30;99.90
37310;DHT22;23195;47.744;7.358;2023-07-20T03:53:18;18.10;99.90
37310;DHT22;23195;47.744;7.358;2023-07-20T03:55:51;19.20;99.90
37310;DHT22;23195;47.744;7.358;2023-07-20T03:58:18;19.20;99.90
37310;DHT22;23195;47.744;7.358;2023-07-20T04:00:51;19.20;99.90
37310;DHT22;23195;47.744;7.358;2023-07-20T04:03:18;19.20;99.90
37310;DHT22;23195;47.744;7.358;2023-07-20T04:05:44;19.20;99.90
37310;DHT22;23195;47.744;7.358;2023-07-20T04:08:11;19.10;99.90
37310;DHT22;23195;47.744;7.358;2023-07-20T04:10:38;19.20;99.90
37310;DHT22;23195;47.744;7.358;2023-07-20T04:13:04;19.20;99.90
37310;DHT22;23195;47.744;7.358;2023-07-20T04:15:30;19.20;99.90
37310;DHT22;23195;47.744;7.358;2023-07-20T04:17:57;19.20;99.90
37310;DHT22;23195;47.744;7.358;2023-07-20T04:20:23;19.10;99.90
37310;DHT22;23195;47.744;7.358;2023-07-20T04:22:49;19.30;99.90
37310;DHT22;23195;47.744;7.358;2023-07-20T04:25:15;19.30;99.90
37310;DHT22;23195;47.744;7.358;2023-07-20T04:27:41;19.40;99.90
37310;DHT22;23195;47.744;7.358;2023-07-20T04:30:08;19.60;99.90
37310;DHT22;23195;47.744;7.358;2023-07-20T04:32:34;19.90;99.90
37310;DHT22;23195;47.744;7.358;2023-07-20T04:35:00;20.50;99.90
37310;DHT22;23195;47.744;7.358;2023-07-20T04:37:26;20.40;99.90
37310;DHT22;23195;47.744;7.358;2023-07-20T04:39:51;21.00;99.90
37310;DHT22;23195;47.744;7.358;2023-07-20T04:42:17;21.40;99.90
37310;DHT22;23195;47.744;7.358;2023-07-20T04:44:43;21.50;99.90
37310;DHT22;23195;47.744;7.358;2023-07-20T04:47:09;21.40;99.90
37310;DHT22;23195;47.744;7.358;2023-07-20T04:49:34;21.20;99.90
37310;DHT22;23195;47.744;7.358;2023-07-20T04:52:00;20.90;99.90
37310;DHT22;23195;47.744;7.358;2023-07-20T04:54:28;20.80;99.90
37310;DHT22;23195;47.744;7.358;2023-07-20T04:56:54;21.20;99.90
37310;DHT22;23195;47.744;7.358;2023-07-20T04:59:19;22.10;99.90
37310;DHT22;23195;47.744;7.358;2023-07-20T05:01:45;22.60;99.90
37310;DHT22;23195;47.744;7.358;2023-07-20T05:04:11;23.10;99.90
37310;DHT22;23195;47.744;7.358;2023-07-20T05:06:37;23.30;99.90
37310;DHT22;23195;47.744;7.358;2023-07-20T05:09:07;23.30;99.90
37310;DHT22;23195;47.744;7.358;2023-07-20T05:11:44;23.60;99.90
37310;DHT22;23195;47.744;7.358;2023-07-20T05:14:17;24.20;99.90
37310;DHT22;23195;47.744;7.358;2023-07-20T05:16:45;25.00;99.90
37310;DHT22;23195;47.744;7.358;2023-07-20T05:19:13;25.60;99.90
37310;DHT22;23195;47.744;7.358;2023-07-20T05:21:42;25.50;99.90
37310;DHT22;23195;47.744;7.358;2023-07-20T05:24:08;25.10;99.90
37310;DHT22;23195;47.744;7.358;2023-07-20T05:26:37;24.90;99.90
37310;DHT22;23195;47.744;7.358;2023-07-20T05:29:03;24.30;99.90
37310;DHT22;23195;47.744;7.358;2023-07-20T05:31:29;24.00;99.90
37310;DHT22;23195;47.744;7.358;2023-07-20T05:33:59;23.80;99.90
37310;DHT22;23195;47.744;7.358;2023-07-20T05:36:25;24.00;99.90
37310;DHT22;23195;47.744;7.358;2023-07-20T05:38:53;24.40;99.90
37310;DHT22;23195;47.744;7.358;2023-07-20T05:41:19;24.60;99.90
37310;DHT22;23195;47.744;7.358;2023-07-20T05:47:23;25.10;99.90
37310;DHT22;23195;47.744;7.358;2023-07-20T05:49:57;24.90;99.90
37310;DHT22;23195;47.744;7.358;2023-07-20T05:52:23;24.60;99.90
37310;DHT22;23195;47.744;7.358;2023-07-20T05:54:48;24.30;99.90
37310;DHT22;23195;47.744;7.358;2023-07-20T05:57:14;24.30;99.90
37310;DHT22;23195;47.744;7.358;2023-07-20T05:59:40;24.80;99.90
37310;DHT22;23195;47.744;7.358;2023-07-20T06:02:09;25.90;99.90
37310;DHT22;23195;47.744;7.358;2023-07-20T06:04:35;26.40;99.90
37310;DHT22;23195;47.744;7.358;2023-07-20T06:07:01;26.30;99.90
37310;DHT22;23195;47.744;7.358;2023-07-20T06:09:27;26.00;99.90
37310;DHT22;23195;47.744;7.358;2023-07-20T06:11:53;26.40;99.90
37310;DHT22;23195;47.744;7.358;2023-07-20T06:14:22;26.50;99.90
37310;DHT22;23195;47.744;7.358;2023-07-20T06:16:48;26.00;99.90
37310;DHT22;23195;47.744;7.358;2023-07-20T06:19:14;25.80;99.90
37310;DHT22;23195;47.744;7.358;2023-07-20T06:21:39;25.50;99.90
37310;DHT22;23195;47.744;7.358;2023-07-20T06:24:05;25.20;99.90
37310;DHT22;23195;47.744;7.358;2023-07-20T06:26:31;25.00;99.90
37310;DHT22;23195;47.744;7.358;2023-07-20T06:29:09;25.00;99.90
37310;DHT22;23195;47.744;7.358;2023-07-20T06:32:12;25.60;99.90
37310;DHT22;23195;47.744;7.358;2023-07-20T06:38:31;26.20;99.40
37310;DHT22;23195;47.744;7.358;2023-07-20T06:41:10;26.40;99.50
37310;DHT22;23195;47.744;7.358;2023-07-20T06:50:50;26.80;96.10
37310;DHT22;23195;47.744;7.358;2023-07-20T06:54:31;27.00;95.60
37310;DHT22;23195;47.744;7.358;2023-07-20T07:03:43;26.90;93.10
37310;DHT22;23195;47.744;7.358;2023-07-20T07:06:43;26.40;94.30
37310;DHT22;23195;47.744;7.358;2023-07-20T07:09:40;26.10;94.30
37310;DHT22;23195;47.744;7.358;2023-07-20T07:12:39;26.80;93.10
37310;DHT22;23195;47.744;7.358;2023-07-20T07:23:07;29.60;87.50
37310;DHT22;23195;47.744;7.358;2023-07-20T07:26:16;29.40;86.80
37310;DHT22;23195;47.744;7.358;2023-07-20T07:32:08;29.10;83.70
37310;DHT22;23195;47.744;7.358;2023-07-20T07:34:37;30.10;82.60
37310;DHT22;23195;47.744;7.358;2023-07-20T07:37:23;31.00;80.00
37310;DHT22;23195;47.744;7.358;2023-07-20T07:40:01;31.00;78.40
37310;DHT22;23195;47.744;7.358;2023-07-20T07:42:40;31.30;76.00
37310;DHT22;23195;47.744;7.358;2023-07-20T07:45:12;31.70;74.00
37310;DHT22;23195;47.744;7.358;2023-07-20T07:48:03;32.30;72.70
37310;DHT22;23195;47.744;7.358;2023-07-20T07:50:44;33.20;69.50
37310;DHT22;23195;47.744;7.358;2023-07-20T07:53:41;34.30;67.70
37310;DHT22;23195;47.744;7.358;2023-07-20T07:56:35;35.10;64.90
37310;DHT22;23195;47.744;7.358;2023-07-20T07:59:30;34.70;62.40
37310;DHT22;23195;47.744;7.358;2023-07-20T08:02:13;34.40;61.70
37310;DHT22;23195;47.744;7.358;2023-07-20T08:08:37;31.60;66.50
37310;DHT22;23195;47.744;7.358;2023-07-20T08:15:11;32.90;64.80
37310;DHT22;23195;47.744;7.358;2023-07-20T08:22:00;34.20;60.50
37310;DHT22;23195;47.744;7.358;2023-07-20T08:28:24;34.90;59.20
37310;DHT22;23195;47.744;7.358;2023-07-20T08:37:47;34.20;59.30
37310;DHT22;23195;47.744;7.358;2023-07-20T08:43:57;33.70;58.10
37310;DHT22;23195;47.744;7.358;2023-07-20T08:47:04;32.60;59.70
37310;DHT22;23195;47.744;7.358;2023-07-20T08:53:13;34.70;57.40
37310;DHT22;23195;47.744;7.358;2023-07-20T09:07:53;33.60;56.00
37310;DHT22;23195;47.744;7.358;2023-07-20T09:10:42;33.60;56.20
37310;DHT22;23195;47.744;7.358;2023-07-20T09:17:14;31.90;59.40
37310;DHT22;23195;47.744;7.358;2023-07-20T09:23:52;30.50;60.70
37310;DHT22;23195;47.744;7.358;2023-07-20T09:30:32;30.10;62.70
37310;DHT22;23195;47.744;7.358;2023-07-20T09:33:53;29.50;62.60
37310;DHT22;23195;47.744;7.358;2023-07-20T09:37:20;29.40;64.00
37310;DHT22;23195;47.744;7.358;2023-07-20T09:44:21;30.60;61.00
37310;DHT22;23195;47.744;7.358;2023-07-20T09:57:43;29.20;64.30
37310;DHT22;23195;47.744;7.358;2023-07-20T10:00:52;29.40;65.30
37310;DHT22;23195;47.744;7.358;2023-07-20T10:06:55;28.10;66.00
37310;DHT22;23195;47.744;7.358;2023-07-20T10:12:35;27.80;70.60
37310;DHT22;23195;47.744;7.358;2023-07-20T10:21:51;27.50;70.70
37310;DHT22;23195;47.744;7.358;2023-07-20T10:24:50;27.60;70.70
37310;DHT22;23195;47.744;7.358;2023-07-20T10:28:13;27.80;69.40
37310;DHT22;23195;47.744;7.358;2023-07-20T10:30:52;27.70;68.60
37310;DHT22;23195;47.744;7.358;2023-07-20T10:33:54;27.80;68.20
37310;DHT22;23195;47.744;7.358;2023-07-20T10:37:06;27.70;67.00
37310;DHT22;23195;47.744;7.358;2023-07-20T10:40:08;27.70;68.90
37310;DHT22;23195;47.744;7.358;2023-07-20T10:43:22;27.60;68.60
37310;DHT22;23195;47.744;7.358;2023-07-20T10:49:30;27.10;69.30
37310;DHT22;23195;47.744;7.358;2023-07-20T10:55:43;26.80;68.80
37310;DHT22;23195;47.744;7.358;2023-07-20T11:01:49;27.30;69.90
37310;DHT22;23195;47.744;7.358;2023-07-20T11:05:00;27.70;68.50
37310;DHT22;23195;47.744;7.358;2023-07-20T11:08:09;27.90;69.00
37310;DHT22;23195;47.744;7.358;2023-07-20T11:14:26;28.00;68.50
37310;DHT22;23195;47.744;7.358;2023-07-20T11:17:34;27.90;68.70
37310;DHT22;23195;47.744;7.358;2023-07-20T11:20:13;27.80;68.40
37310;DHT22;23195;47.744;7.358;2023-07-20T11:23:05;27.40;69.40
37310;DHT22;23195;47.744;7.358;2023-07-20T11:25:51;27.70;70.20
37310;DHT22;23195;47.744;7.358;2023-07-20T11:29:00;28.00;68.80
37310;DHT22;23195;47.744;7.358;2023-07-20T11:31:47;28.10;67.90
37310;DHT22;23195;47.744;7.358;2023-07-20T11:37:55;27.00;67.10
37310;DHT22;23195;47.744;7.358;2023-07-20T11:43:54;27.80;68.80
37310;DHT22;23195;47.744;7.358;2023-07-20T11:49:40;28.30;68.50
37310;DHT22;23195;47.744;7.358;2023-07-20T11:52:22;28.30;67.00
37310;DHT22;23195;47.744;7.358;2023-07-20T11:58:43;28.10;65.60
37310;DHT22;23195;47.744;7.358;2023-07-20T12:01:34;28.20;66.00
37310;DHT22;23195;47.744;7.358;2023-07-20T12:04:22;28.40;66.90
37310;DHT22;23195;47.744;7.358;2023-07-20T12:07:42;28.50;64.60
37310;DHT22;23195;47.744;7.358;2023-07-20T12:10:27;28.50;65.20
37310;DHT22;23195;47.744;7.358;2023-07-20T12:13:39;28.30;65.50
37310;DHT22;23195;47.744;7.358;2023-07-20T12:16:26;28.40;65.90
37310;DHT22;23195;47.744;7.358;2023-07-20T12:25:52;28.10;66.60
37310;DHT22;23195;47.744;7.358;2023-07-20T12:28:45;28.20;66.00
37310;DHT22;23195;47.744;7.358;2023-07-20T12:31:41;28.30;64.00
37310;DHT22;23195;47.744;7.358;2023-07-20T12:34:52;28.20;66.00
37310;DHT22;23195;47.744;7.358;2023-07-20T12:41:02;28.20;63.70
37310;DHT22;23195;47.744;7.358;2023-07-20T12:53:55;28.10;65.50
37310;DHT22;23195;47.744;7.358;2023-07-20T13:27:37;29.10;62.20
37310;DHT22;23195;47.744;7.358;2023-07-20T13:30:38;29.10;61.30
37310;DHT22;23195;47.744;7.358;2023-07-20T13:55:23;29.00;61.60
37310;DHT22;23195;47.744;7.358;2023-07-20T13:58:22;29.20;60.00
37310;DHT22;23195;47.744;7.358;2023-07-20T14:01:24;29.10;60.60
37310;DHT22;23195;47.744;7.358;2023-07-20T14:10:40;29.10;59.30
37310;DHT22;23195;47.744;7.358;2023-07-20T14:13:55;29.30;60.60
37310;DHT22;23195;47.744;7.358;2023-07-20T14:27:33;28.30;61.90
37310;DHT22;23195;47.744;7.358;2023-07-20T14:53:59;28.90;60.40
37310;DHT22;23195;47.744;7.358;2023-07-20T14:56:46;29.10;61.10
37310;DHT22;23195;47.744;7.358;2023-07-20T15:00:15;29.10;60.70
37310;DHT22;23195;47.744;7.358;2023-07-20T15:03:24;29.10;59.30
37310;DHT22;23195;47.744;7.358;2023-07-20T15:06:10;29.00;59.60
37310;DHT22;23195;47.744;7.358;2023-07-20T15:09:25;28.90;59.20
37310;DHT22;23195;47.744;7.358;2023-07-20T15:12:34;28.80;59.10
37310;DHT22;23195;47.744;7.358;2023-07-20T15:18:29;28.60;60.10
37310;DHT22;23195;47.744;7.358;2023-07-20T15:34:26;28.80;59.20
37310;DHT22;23195;47.744;7.358;2023-07-20T15:40:34;28.90;59.30
37310;DHT22;23195;47.744;7.358;2023-07-20T15:49:57;28.80;60.40
37310;DHT22;23195;47.744;7.358;2023-07-20T15:56:07;28.70;59.20
37310;DHT22;23195;47.744;7.358;2023-07-20T15:58:57;28.90;60.60
37310;DHT22;23195;47.744;7.358;2023-07-20T16:05:18;28.40;62.20
37310;DHT22;23195;47.744;7.358;2023-07-20T16:14:21;28.50;62.40
37310;DHT22;23195;47.744;7.358;2023-07-20T16:20:15;28.40;60.70
37310;DHT22;23195;47.744;7.358;2023-07-20T16:23:24;28.40;60.10
37310;DHT22;23195;47.744;7.358;2023-07-20T16:46:11;29.00;59.70
37310;DHT22;23195;47.744;7.358;2023-07-20T16:49:14;28.90;61.40
37310;DHT22;23195;47.744;7.358;2023-07-20T16:55:07;28.80;64.80
37310;DHT22;23195;47.744;7.358;2023-07-20T17:01:25;30.10;66.30
37310;DHT22;23195;47.744;7.358;2023-07-20T17:04:18;28.10;65.80
37310;DHT22;23195;47.744;7.358;2023-07-20T17:06:59;27.80;65.90
37310;DHT22;23195;47.744;7.358;2023-07-20T17:19:15;27.40;67.40
37310;DHT22;23195;47.744;7.358;2023-07-20T17:22:42;27.20;66.90
37310;DHT22;23195;47.744;7.358;2023-07-20T17:25:37;27.20;67.70
37310;DHT22;23195;47.744;7.358;2023-07-20T17:28:48;26.90;68.80
37310;DHT22;23195;47.744;7.358;2023-07-20T17:32:02;26.90;69.10
37310;DHT22;23195;47.744;7.358;2023-07-20T17:34:46;26.90;69.20
37310;DHT22;23195;47.744;7.358;2023-07-20T17:37:29;27.00;69.00
37310;DHT22;23195;47.744;7.358;2023-07-20T17:46:48;26.50;69.10
37310;DHT22;23195;47.744;7.358;2023-07-20T17:49:54;26.20;69.80
37310;DHT22;23195;47.744;7.358;2023-07-20T17:59:38;26.10;70.80
37310;DHT22;23195;47.744;7.358;2023-07-20T18:02:34;26.20;71.20
37310;DHT22;23195;47.744;7.358;2023-07-20T18:05:36;26.70;71.70
37310;DHT22;23195;47.744;7.358;2023-07-20T18:08:38;26.10;71.30
37310;DHT22;23195;47.744;7.358;2023-07-20T18:11:25;25.90;71.00
37310;DHT22;23195;47.744;7.358;2023-07-20T18:14:51;25.90;71.70
37310;DHT22;23195;47.744;7.358;2023-07-20T18:20:36;24.00;71.00
37310;DHT22;23195;47.744;7.358;2023-07-20T18:23:24;25.40;72.70
37310;DHT22;23195;47.744;7.358;2023-07-20T18:26:35;25.40;72.80
37310;DHT22;23195;47.744;7.358;2023-07-20T18:39:18;25.10;74.50
37310;DHT22;23195;47.744;7.358;2023-07-20T18:42:06;24.90;74.20
37310;DHT22;23195;47.744;7.358;2023-07-20T18:48:19;24.70;74.70
37310;DHT22;23195;47.744;7.358;2023-07-20T18:51:24;24.60;75.10
37310;DHT22;23195;47.744;7.358;2023-07-20T18:54:34;24.70;75.60
37310;DHT22;23195;47.744;7.358;2023-07-20T19:00:46;24.40;76.10
37310;DHT22;23195;47.744;7.358;2023-07-20T19:07:34;24.10;76.50
37310;DHT22;23195;47.744;7.358;2023-07-20T19:13:54;24.10;78.00
37310;DHT22;23195;47.744;7.358;2023-07-20T19:20:27;24.00;79.10
37310;DHT22;23195;47.744;7.358;2023-07-20T19:23:20;23.90;79.70
37310;DHT22;23195;47.744;7.358;2023-07-20T19:29:47;23.70;80.60
37310;DHT22;23195;47.744;7.358;2023-07-20T19:32:46;23.60;80.60
37310;DHT22;23195;47.744;7.358;2023-07-20T19:36:10;23.50;81.10
37310;DHT22;23195;47.744;7.358;2023-07-20T19:38:55;23.10;81.10
37310;DHT22;23195;47.744;7.358;2023-07-20T19:41:46;23.30;81.70
37310;DHT22;23195;47.744;7.358;2023-07-20T19:44:57;23.30;81.60
37310;DHT22;23195;47.744;7.358;2023-07-20T19:47:45;23.20;81.50
37310;DHT22;23195;47.744;7.358;2023-07-20T19:57:37;23.00;83.90
37310;DHT22;23195;47.744;7.358;2023-07-20T20:03:53;22.90;84.70
37310;DHT22;23195;47.744;7.358;2023-07-20T20:06:30;22.90;84.60
37310;DHT22;23195;47.744;7.358;2023-07-20T20:09:57;22.60;84.10
37310;DHT22;23195;47.744;7.358;2023-07-20T20:13:01;22.70;84.40
37310;DHT22;23195;47.744;7.358;2023-07-20T20:19:40;23.30;85.50
37310;DHT22;23195;47.744;7.358;2023-07-20T20:22:39;22.40;85.50
37310;DHT22;23195;47.744;7.358;2023-07-20T20:28:54;22.20;86.30
37310;DHT22;23195;47.744;7.358;2023-07-20T20:31:36;22.10;86.00
37310;DHT22;23195;47.744;7.358;2023-07-20T20:34:06;22.20;86.00
37310;DHT22;23195;47.744;7.358;2023-07-20T20:36:43;22.20;86.40
37310;DHT22;23195;47.744;7.358;2023-07-20T20:39:09;22.20;86.80
37310;DHT22;23195;47.744;7.358;2023-07-20T20:41:34;22.10;87.30
37310;DHT22;23195;47.744;7.358;2023-07-20T20:44:10;22.10;87.70
37310;DHT22;23195;47.744;7.358;2023-07-20T20:46:49;22.00;87.90
37310;DHT22;23195;47.744;7.358;2023-07-20T20:49:15;21.90;88.50
37310;DHT22;23195;47.744;7.358;2023-07-20T20:51:41;21.90;88.60
37310;DHT22;23195;47.744;7.358;2023-07-20T20:54:08;21.90;89.10
37310;DHT22;23195;47.744;7.358;2023-07-20T20:56:35;21.70;88.60
